sensor_id;sensor_type;location;lat;lon;timestamp;P1;durP1;ratioP1;P2;durP2;ratioP2
2029;SDS011;1020;48.854;8.830;2023-07-09T00:00:37;4.27;;;3.87;;
2029;SDS011;1020;48.854;8.830;2023-07-09T00:03:05;4.17;;;3.87;;
2029;SDS011;1020;48.854;8.830;2023-07-09T00:05:32;4.23;;;3.93;;
2029;SDS011;1020;48.854;8.830;2023-07-09T00:07:59;4.43;;;3.93;;
2029;SDS011;1020;48.854;8.830;2023-07-09T00:10:26;3.80;;;3.50;;
2029;SDS011;1020;48.854;8.830;2023-07-09T00:12:53;7.70;;;4.17;;
2029;SDS011;1020;48.854;8.830;2023-07-09T00:15:21;4.27;;;3.97;;
2029;SDS011;1020;48.854;8.830;2023-07-09T00:17:47;4.33;;;3.87;;
2029;SDS011;1020;48.854;8.830;2023-07-09T00:20:15;5.73;;;4.30;;
2029;SDS011;1020;48.854;8.830;2023-07-09T00:22:43;4.20;;;3.80;;
2029;SDS011;1020;48.854;8.830;2023-07-09T00:25:17;4.40;;;4.00;;
2029;SDS011;1020;48.854;8.830;2023-07-09T00:27:45;7.03;;;4.63;;
2029;SDS011;1020;48.854;8.830;2023-07-09T00:30:15;4.67;;;4.27;;
2029;SDS011;1020;48.854;8.830;2023-07-09T00:32:45;4.63;;;3.33;;
2029;SDS011;1020;48.854;8.830;2023-07-09T00:35:12;4.67;;;4.13;;
2029;SDS011;1020;48.854;8.830;2023-07-09T00:37:40;4.20;;;3.80;;
2029;SDS011;1020;48.854;8.830;2023-07-09T00:40:09;5.13;;;3.83;;
2029;SDS011;1020;48.854;8.830;2023-07-09T00:42:42;4.67;;;4.27;;
2029;SDS011;1020;48.854;8.830;2023-07-09T00:45:15;7.70;;;3.60;;
2029;SDS011;1020;48.854;8.830;2023-07-09T00:47:46;4.47;;;3.80;;
2029;SDS011;1020;48.854;8.830;2023-07-09T00:50:23;4.30;;;4.00;;
2029;SDS011;1020;48.854;8.830;2023-07-09T00:52:59;4.07;;;3.67;;
2029;SDS011;1020;48.854;8.830;2023-07-09T00:55:32;4.33;;;3.93;;
2029;SDS011;1020;48.854;8.830;2023-07-09T00:58:06;5.43;;;4.23;;
2029;SDS011;1020;48.854;8.830;2023-07-09T01:00:36;4.90;;;4.50;;
2029;SDS011;1020;48.854;8.830;2023-07-09T01:03:13;5.10;;;4.20;;
2029;SDS011;1020;48.854;8.830;2023-07-09T01:05:46;4.53;;;4.20;;
2029;SDS011;1020;48.854;8.830;2023-07-09T01:08:16;4.77;;;4.37;;
2029;SDS011;1020;48.854;8.830;2023-07-09T01:10:45;4.50;;;4.10;;
2029;SDS011;1020;48.854;8.830;2023-07-09T01:13:12;4.83;;;4.43;;
2029;SDS011;1020;48.854;8.830;2023-07-09T01:15:39;4.93;;;4.00;;
2029;SDS011;1020;48.854;8.830;2023-07-09T01:18:07;4.23;;;3.67;;
2029;SDS011;1020;48.854;8.830;2023-07-09T01:20:37;5.27;;;4.60;;
2029;SDS011;1020;48.854;8.830;2023-07-09T01:23:06;4.30;;;3.90;;
2029;SDS011;1020;48.854;8.830;2023-07-09T01:25:34;4.40;;;4.10;;
2029;SDS011;1020;48.854;8.830;2023-07-09T01:28:04;4.37;;;3.70;;
2029;SDS011;1020;48.854;8.830;2023-07-09T01:30:32;5.53;;;4.07;;
2029;SDS011;1020;48.854;8.830;2023-07-09T01:33:02;5.93;;;3.80;;
2029;SDS011;1020;48.854;8.830;2023-07-09T01:35:31;4.43;;;4.00;;
2029;SDS011;1020;48.854;8.830;2023-07-09T01:38:00;5.50;;;5.10;;
2029;SDS011;1020;48.854;8.830;2023-07-09T01:40:28;4.80;;;4.37;;
2029;SDS011;1020;48.854;8.830;2023-07-09T01:42:56;6.03;;;4.60;;
2029;SDS011;1020;48.854;8.830;2023-07-09T01:45:24;4.40;;;3.77;;
2029;SDS011;1020;48.854;8.830;2023-07-09T01:47:51;6.40;;;3.90;;
2029;SDS011;1020;48.854;8.830;2023-07-09T01:50:20;4.43;;;4.03;;
2029;SDS011;1020;48.854;8.830;2023-07-09T01:52:49;5.63;;;4.50;;
2029;SDS011;1020;48.854;8.830;2023-07-09T01:55:16;4.83;;;4.27;;
2029;SDS011;1020;48.854;8.830;2023-07-09T01:57:45;4.73;;;4.00;;
2029;SDS011;1020;48.854;8.830;2023-07-09T02:00:14;4.40;;;4.07;;
2029;SDS011;1020;48.854;8.830;2023-07-09T02:02:43;4.00;;;3.67;;
2029;SDS011;1020;48.854;8.830;2023-07-09T02:05:12;4.43;;;4.07;;
2029;SDS011;1020;48.854;8.830;2023-07-09T02:07:40;5.20;;;4.70;;
2029;SDS011;1020;48.854;8.830;2023-07-09T02:10:08;4.60;;;4.20;;
2029;SDS011;1020;48.854;8.830;2023-07-09T02:12:36;5.03;;;4.30;;
2029;SDS011;1020;48.854;8.830;2023-07-09T02:15:05;5.33;;;4.73;;
2029;SDS011;1020;48.854;8.830;2023-07-09T02:17:32;7.73;;;4.67;;
2029;SDS011;1020;48.854;8.830;2023-07-09T02:19:59;5.53;;;4.90;;
2029;SDS011;1020;48.854;8.830;2023-07-09T02:22:26;4.90;;;4.50;;
2029;SDS011;1020;48.854;8.830;2023-07-09T02:24:52;5.90;;;5.40;;
2029;SDS011;1020;48.854;8.830;2023-07-09T02:27:19;4.83;;;4.43;;
2029;SDS011;1020;48.854;8.830;2023-07-09T02:29:47;5.20;;;4.80;;
2029;SDS011;1020;48.854;8.830;2023-07-09T02:32:17;5.10;;;4.60;;
2029;SDS011;1020;48.854;8.830;2023-07-09T02:34:44;5.10;;;4.70;;
2029;SDS011;1020;48.854;8.830;2023-07-09T02:37:14;4.70;;;4.23;;
2029;SDS011;1020;48.854;8.830;2023-07-09T02:39:43;7.00;;;5.97;;
2029;SDS011;1020;48.854;8.830;2023-07-09T02:42:10;5.60;;;5.10;;
2029;SDS011;1020;48.854;8.830;2023-07-09T02:44:38;5.50;;;5.10;;
2029;SDS011;1020;48.854;8.830;2023-07-09T02:47:06;5.63;;;5.23;;
2029;SDS011;1020;48.854;8.830;2023-07-09T02:49:34;6.63;;;5.83;;
2029;SDS011;1020;48.854;8.830;2023-07-09T02:52:02;6.87;;;5.60;;
2029;SDS011;1020;48.854;8.830;2023-07-09T02:54:29;6.50;;;5.80;;
2029;SDS011;1020;48.854;8.830;2023-07-09T02:56:56;5.90;;;5.47;;
2029;SDS011;1020;48.854;8.830;2023-07-09T02:59:23;6.03;;;5.43;;
2029;SDS011;1020;48.854;8.830;2023-07-09T03:01:51;6.20;;;5.60;;
2029;SDS011;1020;48.854;8.830;2023-07-09T03:04:19;6.43;;;5.83;;
2029;SDS011;1020;48.854;8.830;2023-07-09T03:06:47;6.17;;;5.67;;
2029;SDS011;1020;48.854;8.830;2023-07-09T03:09:14;6.03;;;5.37;;
2029;SDS011;1020;48.854;8.830;2023-07-09T03:11:41;6.40;;;5.90;;
2029;SDS011;1020;48.854;8.830;2023-07-09T03:14:08;6.13;;;5.60;;
2029;SDS011;1020;48.854;8.830;2023-07-09T03:16:35;6.63;;;6.10;;
2029;SDS011;1020;48.854;8.830;2023-07-09T03:19:02;6.20;;;5.70;;
2029;SDS011;1020;48.854;8.830;2023-07-09T03:21:30;6.00;;;5.40;;
2029;SDS011;1020;48.854;8.830;2023-07-09T03:23:58;6.60;;;5.87;;
2029;SDS011;1020;48.854;8.830;2023-07-09T03:26:25;5.83;;;5.23;;
2029;SDS011;1020;48.854;8.830;2023-07-09T03:28:52;6.57;;;5.93;;
2029;SDS011;1020;48.854;8.830;2023-07-09T03:31:20;6.47;;;5.90;;
2029;SDS011;1020;48.854;8.830;2023-07-09T03:33:47;6.10;;;5.60;;
2029;SDS011;1020;48.854;8.830;2023-07-09T03:36:15;6.60;;;6.00;;
2029;SDS011;1020;48.854;8.830;2023-07-09T03:38:42;7.53;;;6.83;;
2029;SDS011;1020;48.854;8.830;2023-07-09T03:41:10;6.90;;;6.23;;
2029;SDS011;1020;48.854;8.830;2023-07-09T03:43:37;6.63;;;6.03;;
2029;SDS011;1020;48.854;8.830;2023-07-09T03:46:04;8.93;;;6.40;;
2029;SDS011;1020;48.854;8.830;2023-07-09T03:48:30;6.53;;;6.03;;
2029;SDS011;1020;48.854;8.830;2023-07-09T03:50:57;6.73;;;6.07;;
2029;SDS011;1020;48.854;8.830;2023-07-09T03:53:24;5.90;;;5.40;;
2029;SDS011;1020;48.854;8.830;2023-07-09T03:55:52;6.23;;;5.63;;
2029;SDS011;1020;48.854;8.830;2023-07-09T03:58:21;7.20;;;6.50;;
2029;SDS011;1020;48.854;8.830;2023-07-09T04:00:49;6.60;;;6.00;;
2029;SDS011;1020;48.854;8.830;2023-07-09T04:03:16;6.60;;;5.93;;
2029;SDS011;1020;48.854;8.830;2023-07-09T04:05:43;6.27;;;5.77;;
2029;SDS011;1020;48.854;8.830;2023-07-09T04:08:09;5.90;;;5.40;;
2029;SDS011;1020;48.854;8.830;2023-07-09T04:10:36;5.40;;;5.00;;
2029;SDS011;1020;48.854;8.830;2023-07-09T04:13:03;6.17;;;5.67;;
2029;SDS011;1020;48.854;8.830;2023-07-09T04:15:31;5.77;;;5.37;;
2029;SDS011;1020;48.854;8.830;2023-07-09T04:17:58;5.70;;;5.20;;
2029;SDS011;1020;48.854;8.830;2023-07-09T04:20:25;8.50;;;6.00;;
2029;SDS011;1020;48.854;8.830;2023-07-09T04:22:53;6.50;;;5.90;;
2029;SDS011;1020;48.854;8.830;2023-07-09T04:25:19;5.87;;;5.37;;
2029;SDS011;1020;48.854;8.830;2023-07-09T04:27:47;8.23;;;5.83;;
2029;SDS011;1020;48.854;8.830;2023-07-09T04:30:15;6.57;;;5.37;;
2029;SDS011;1020;48.854;8.830;2023-07-09T04:32:44;5.80;;;5.40;;
2029;SDS011;1020;48.854;8.830;2023-07-09T04:35:13;6.27;;;5.67;;
2029;SDS011;1020;48.854;8.830;2023-07-09T04:37:40;6.00;;;5.50;;
2029;SDS011;1020;48.854;8.830;2023-07-09T04:40:08;5.80;;;5.30;;
2029;SDS011;1020;48.854;8.830;2023-07-09T04:42:37;5.90;;;5.40;;
2029;SDS011;1020;48.854;8.830;2023-07-09T04:45:05;6.10;;;5.53;;
2029;SDS011;1020;48.854;8.830;2023-07-09T04:47:34;5.03;;;4.53;;
2029;SDS011;1020;48.854;8.830;2023-07-09T04:50:02;5.47;;;5.07;;
2029;SDS011;1020;48.854;8.830;2023-07-09T04:52:29;6.43;;;5.60;;
2029;SDS011;1020;48.854;8.830;2023-07-09T04:54:57;8.20;;;5.90;;
2029;SDS011;1020;48.854;8.830;2023-07-09T04:57:24;7.53;;;5.70;;
2029;SDS011;1020;48.854;8.830;2023-07-09T04:59:51;5.50;;;5.10;;
2029;SDS011;1020;48.854;8.830;2023-07-09T05:02:18;5.80;;;5.20;;
2029;SDS011;1020;48.854;8.830;2023-07-09T05:04:45;6.17;;;5.50;;
2029;SDS011;1020;48.854;8.830;2023-07-09T05:07:13;5.43;;;5.00;;
2029;SDS011;1020;48.854;8.830;2023-07-09T05:09:40;6.93;;;6.00;;
2029;SDS011;1020;48.854;8.830;2023-07-09T05:12:07;5.50;;;5.10;;
2029;SDS011;1020;48.854;8.830;2023-07-09T05:14:34;5.67;;;5.17;;
2029;SDS011;1020;48.854;8.830;2023-07-09T05:17:01;5.23;;;4.63;;
2029;SDS011;1020;48.854;8.830;2023-07-09T05:19:29;7.50;;;5.27;;
2029;SDS011;1020;48.854;8.830;2023-07-09T05:21:56;5.27;;;4.77;;
2029;SDS011;1020;48.854;8.830;2023-07-09T05:24:24;6.73;;;5.60;;
2029;SDS011;1020;48.854;8.830;2023-07-09T05:26:51;6.20;;;5.70;;
2029;SDS011;1020;48.854;8.830;2023-07-09T05:29:17;7.00;;;6.20;;
2029;SDS011;1020;48.854;8.830;2023-07-09T05:31:44;6.83;;;5.80;;
2029;SDS011;1020;48.854;8.830;2023-07-09T05:34:11;5.90;;;5.40;;
2029;SDS011;1020;48.854;8.830;2023-07-09T05:36:38;5.63;;;5.13;;
2029;SDS011;1020;48.854;8.830;2023-07-09T05:39:05;5.87;;;5.37;;
2029;SDS011;1020;48.854;8.830;2023-07-09T05:41:33;4.50;;;4.20;;
2029;SDS011;1020;48.854;8.830;2023-07-09T05:44:00;5.43;;;4.93;;
2029;SDS011;1020;48.854;8.830;2023-07-09T05:46:27;6.20;;;5.30;;
2029;SDS011;1020;48.854;8.830;2023-07-09T05:48:54;5.90;;;5.40;;
2029;SDS011;1020;48.854;8.830;2023-07-09T05:51:20;6.00;;;5.50;;
2029;SDS011;1020;48.854;8.830;2023-07-09T05:53:49;6.50;;;5.50;;
2029;SDS011;1020;48.854;8.830;2023-07-09T05:56:16;4.90;;;4.50;;
2029;SDS011;1020;48.854;8.830;2023-07-09T05:58:44;5.77;;;5.33;;
2029;SDS011;1020;48.854;8.830;2023-07-09T06:01:11;5.33;;;4.90;;
2029;SDS011;1020;48.854;8.830;2023-07-09T06:03:37;6.57;;;5.30;;
2029;SDS011;1020;48.854;8.830;2023-07-09T06:06:04;5.40;;;4.63;;
2029;SDS011;1020;48.854;8.830;2023-07-09T06:08:32;6.50;;;4.63;;
2029;SDS011;1020;48.854;8.830;2023-07-09T06:10:59;5.13;;;4.63;;
2029;SDS011;1020;48.854;8.830;2023-07-09T06:13:28;4.63;;;4.23;;
2029;SDS011;1020;48.854;8.830;2023-07-09T06:15:57;5.20;;;4.80;;
2029;SDS011;1020;48.854;8.830;2023-07-09T06:18:25;5.20;;;4.80;;
2029;SDS011;1020;48.854;8.830;2023-07-09T06:20:55;5.90;;;5.33;;
2029;SDS011;1020;48.854;8.830;2023-07-09T06:23:23;4.80;;;4.30;;
2029;SDS011;1020;48.854;8.830;2023-07-09T06:25:50;6.23;;;4.13;;
2029;SDS011;1020;48.854;8.830;2023-07-09T06:28:19;4.30;;;3.90;;
2029;SDS011;1020;48.854;8.830;2023-07-09T06:30:47;4.60;;;4.20;;
2029;SDS011;1020;48.854;8.830;2023-07-09T06:33:16;4.43;;;4.03;;
2029;SDS011;1020;48.854;8.830;2023-07-09T06:35:45;4.03;;;3.63;;
2029;SDS011;1020;48.854;8.830;2023-07-09T06:38:13;4.17;;;3.80;;
2029;SDS011;1020;48.854;8.830;2023-07-09T06:40:40;4.90;;;4.40;;
2029;SDS011;1020;48.854;8.830;2023-07-09T06:43:07;4.90;;;4.50;;
2029;SDS011;1020;48.854;8.830;2023-07-09T06:45:34;4.33;;;4.00;;
2029;SDS011;1020;48.854;8.830;2023-07-09T06:48:01;4.33;;;3.93;;
2029;SDS011;1020;48.854;8.830;2023-07-09T06:50:29;4.20;;;3.90;;
2029;SDS011;1020;48.854;8.830;2023-07-09T06:52:59;4.80;;;3.90;;
2029;SDS011;1020;48.854;8.830;2023-07-09T06:55:26;5.60;;;4.30;;
2029;SDS011;1020;48.854;8.830;2023-07-09T06:57:53;4.10;;;3.80;;
2029;SDS011;1020;48.854;8.830;2023-07-09T07:00:20;4.30;;;3.93;;
2029;SDS011;1020;48.854;8.830;2023-07-09T07:02:46;4.30;;;3.27;;
2029;SDS011;1020;48.854;8.830;2023-07-09T07:05:13;4.33;;;3.93;;
2029;SDS011;1020;48.854;8.830;2023-07-09T07:07:42;4.13;;;3.30;;
2029;SDS011;1020;48.854;8.830;2023-07-09T07:10:09;4.20;;;3.80;;
2029;SDS011;1020;48.854;8.830;2023-07-09T07:12:40;3.30;;;3.00;;
2029;SDS011;1020;48.854;8.830;2023-07-09T07:15:09;3.43;;;3.10;;
2029;SDS011;1020;48.854;8.830;2023-07-09T07:17:37;4.10;;;3.80;;
2029;SDS011;1020;48.854;8.830;2023-07-09T07:20:04;6.00;;;3.80;;
2029;SDS011;1020;48.854;8.830;2023-07-09T07:22:31;4.20;;;2.97;;
2029;SDS011;1020;48.854;8.830;2023-07-09T07:24:59;4.43;;;2.60;;
2029;SDS011;1020;48.854;8.830;2023-07-09T07:27:26;4.60;;;3.33;;
2029;SDS011;1020;48.854;8.830;2023-07-09T07:29:53;3.30;;;3.00;;
2029;SDS011;1020;48.854;8.830;2023-07-09T07:32:19;4.13;;;3.17;;
2029;SDS011;1020;48.854;8.830;2023-07-09T07:34:46;3.47;;;3.17;;
2029;SDS011;1020;48.854;8.830;2023-07-09T07:37:13;3.40;;;3.20;;
2029;SDS011;1020;48.854;8.830;2023-07-09T07:39:40;3.87;;;3.30;;
2029;SDS011;1020;48.854;8.830;2023-07-09T07:42:09;3.30;;;3.07;;
2029;SDS011;1020;48.854;8.830;2023-07-09T07:44:36;3.63;;;3.33;;
2029;SDS011;1020;48.854;8.830;2023-07-09T07:47:03;3.30;;;3.00;;
2029;SDS011;1020;48.854;8.830;2023-07-09T07:49:30;4.23;;;3.83;;
2029;SDS011;1020;48.854;8.830;2023-07-09T07:51:57;4.03;;;3.73;;
2029;SDS011;1020;48.854;8.830;2023-07-09T07:54:28;3.70;;;3.10;;
2029;SDS011;1020;48.854;8.830;2023-07-09T07:56:55;2.93;;;2.60;;
2029;SDS011;1020;48.854;8.830;2023-07-09T07:59:23;3.63;;;2.70;;
2029;SDS011;1020;48.854;8.830;2023-07-09T08:01:50;2.97;;;2.67;;
2029;SDS011;1020;48.854;8.830;2023-07-09T08:04:16;3.57;;;3.03;;
2029;SDS011;1020;48.854;8.830;2023-07-09T08:06:43;3.30;;;3.10;;
2029;SDS011;1020;48.854;8.830;2023-07-09T08:09:10;2.90;;;2.70;;
2029;SDS011;1020;48.854;8.830;2023-07-09T08:11:37;4.20;;;3.15;;
2029;SDS011;1020;48.854;8.830;2023-07-09T08:14:04;2.92;;;2.72;;
2029;SDS011;1020;48.854;8.830;2023-07-09T08:16:32;2.85;;;2.65;;
2029;SDS011;1020;48.854;8.830;2023-07-09T08:18:59;3.10;;;2.83;;
2029;SDS011;1020;48.854;8.830;2023-07-09T08:21:26;4.40;;;3.28;;
2029;SDS011;1020;48.854;8.830;2023-07-09T08:23:52;3.38;;;3.08;;
2029;SDS011;1020;48.854;8.830;2023-07-09T08:26:19;3.97;;;3.03;;
2029;SDS011;1020;48.854;8.830;2023-07-09T08:28:46;4.68;;;2.63;;
2029;SDS011;1020;48.854;8.830;2023-07-09T08:31:13;2.78;;;2.58;;
2029;SDS011;1020;48.854;8.830;2023-07-09T08:33:41;2.42;;;2.30;;
2029;SDS011;1020;48.854;8.830;2023-07-09T08:36:08;2.83;;;2.63;;
2029;SDS011;1020;48.854;8.830;2023-07-09T08:38:35;2.72;;;2.53;;
2029;SDS011;1020;48.854;8.830;2023-07-09T08:41:02;2.83;;;2.60;;
2029;SDS011;1020;48.854;8.830;2023-07-09T08:43:39;2.88;;;2.67;;
2029;SDS011;1020;48.854;8.830;2023-07-09T08:46:17;3.08;;;2.88;;
2029;SDS011;1020;48.854;8.830;2023-07-09T08:48:54;2.55;;;2.35;;
2029;SDS011;1020;48.854;8.830;2023-07-09T08:51:24;4.45;;;3.15;;
2029;SDS011;1020;48.854;8.830;2023-07-09T08:53:56;3.33;;;3.13;;
2029;SDS011;1020;48.854;8.830;2023-07-09T08:56:25;3.38;;;3.08;;
2029;SDS011;1020;48.854;8.830;2023-07-09T08:58:53;3.15;;;2.70;;
2029;SDS011;1020;48.854;8.830;2023-07-09T09:01:23;3.28;;;2.85;;
2029;SDS011;1020;48.854;8.830;2023-07-09T09:03:55;3.10;;;2.72;;
2029;SDS011;1020;48.854;8.830;2023-07-09T09:06:27;3.63;;;3.33;;
2029;SDS011;1020;48.854;8.830;2023-07-09T09:09:01;3.00;;;2.80;;
2029;SDS011;1020;48.854;8.830;2023-07-09T09:11:32;3.50;;;3.08;;
2029;SDS011;1020;48.854;8.830;2023-07-09T09:14:14;2.65;;;2.42;;
2029;SDS011;1020;48.854;8.830;2023-07-09T09:16:56;3.30;;;3.00;;
2029;SDS011;1020;48.854;8.830;2023-07-09T09:19:27;3.33;;;3.03;;
2029;SDS011;1020;48.854;8.830;2023-07-09T09:22:00;3.03;;;2.83;;
2029;SDS011;1020;48.854;8.830;2023-07-09T09:24:33;3.35;;;3.05;;
2029;SDS011;1020;48.854;8.830;2023-07-09T09:27:03;4.32;;;2.97;;
2029;SDS011;1020;48.854;8.830;2023-07-09T09:29:30;3.88;;;2.97;;
2029;SDS011;1020;48.854;8.830;2023-07-09T09:31:58;3.08;;;2.58;;
2029;SDS011;1020;48.854;8.830;2023-07-09T09:34:30;3.22;;;2.92;;
2029;SDS011;1020;48.854;8.830;2023-07-09T09:36:58;3.00;;;2.80;;
2029;SDS011;1020;48.854;8.830;2023-07-09T09:39:25;3.17;;;2.87;;
2029;SDS011;1020;48.854;8.830;2023-07-09T09:41:53;3.30;;;3.00;;
2029;SDS011;1020;48.854;8.830;2023-07-09T09:44:23;3.07;;;2.87;;
2029;SDS011;1020;48.854;8.830;2023-07-09T09:46:52;3.20;;;3.00;;
2029;SDS011;1020;48.854;8.830;2023-07-09T09:49:22;3.10;;;2.80;;
2029;SDS011;1020;48.854;8.830;2023-07-09T09:51:50;2.83;;;2.33;;
2029;SDS011;1020;48.854;8.830;2023-07-09T09:54:17;5.27;;;2.83;;
2029;SDS011;1020;48.854;8.830;2023-07-09T09:56:47;2.43;;;2.20;;
2029;SDS011;1020;48.854;8.830;2023-07-09T09:59:19;3.10;;;2.80;;
2029;SDS011;1020;48.854;8.830;2023-07-09T10:01:56;3.13;;;2.83;;
2029;SDS011;1020;48.854;8.830;2023-07-09T10:04:23;4.13;;;3.23;;
2029;SDS011;1020;48.854;8.830;2023-07-09T10:06:53;6.03;;;3.57;;
2029;SDS011;1020;48.854;8.830;2023-07-09T10:09:24;3.53;;;3.23;;
2029;SDS011;1020;48.854;8.830;2023-07-09T10:12:01;3.83;;;3.40;;
2029;SDS011;1020;48.854;8.830;2023-07-09T10:14:40;3.40;;;3.10;;
2029;SDS011;1020;48.854;8.830;2023-07-09T10:17:15;3.67;;;3.10;;
2029;SDS011;1020;48.854;8.830;2023-07-09T10:19:48;4.00;;;3.13;;
2029;SDS011;1020;48.854;8.830;2023-07-09T10:22:22;4.10;;;3.80;;
2029;SDS011;1020;48.854;8.830;2023-07-09T10:24:57;5.53;;;2.73;;
2029;SDS011;1020;48.854;8.830;2023-07-09T10:27:35;3.53;;;3.23;;
2029;SDS011;1020;48.854;8.830;2023-07-09T10:30:15;3.50;;;3.20;;
2029;SDS011;1020;48.854;8.830;2023-07-09T10:33:04;3.57;;;2.90;;
2029;SDS011;1020;48.854;8.830;2023-07-09T10:35:37;3.43;;;3.13;;
2029;SDS011;1020;48.854;8.830;2023-07-09T10:38:14;3.00;;;2.80;;
2029;SDS011;1020;48.854;8.830;2023-07-09T10:40:47;3.80;;;3.10;;
2029;SDS011;1020;48.854;8.830;2023-07-09T10:43:18;4.47;;;3.40;;
2029;SDS011;1020;48.854;8.830;2023-07-09T10:45:51;4.20;;;3.10;;
2029;SDS011;1020;48.854;8.830;2023-07-09T10:48:25;4.37;;;3.20;;
2029;SDS011;1020;48.854;8.830;2023-07-09T10:50:59;3.33;;;2.90;;
2029;SDS011;1020;48.854;8.830;2023-07-09T10:53:31;3.43;;;2.73;;
2029;SDS011;1020;48.854;8.830;2023-07-09T10:56:04;3.00;;;2.80;;
2029;SDS011;1020;48.854;8.830;2023-07-09T10:58:35;3.13;;;2.83;;
2029;SDS011;1020;48.854;8.830;2023-07-09T11:01:07;4.47;;;3.27;;
2029;SDS011;1020;48.854;8.830;2023-07-09T11:03:42;3.00;;;2.80;;
2029;SDS011;1020;48.854;8.830;2023-07-09T11:06:14;3.33;;;2.87;;
2029;SDS011;1020;48.854;8.830;2023-07-09T11:08:47;4.00;;;3.00;;
2029;SDS011;1020;48.854;8.830;2023-07-09T11:11:22;3.53;;;3.23;;
2029;SDS011;1020;48.854;8.830;2023-07-09T11:13:55;3.37;;;3.07;;
2029;SDS011;1020;48.854;8.830;2023-07-09T11:16:27;3.57;;;3.27;;
2029;SDS011;1020;48.854;8.830;2023-07-09T11:18:58;4.23;;;2.90;;
2029;SDS011;1020;48.854;8.830;2023-07-09T11:21:27;3.50;;;3.20;;
2029;SDS011;1020;48.854;8.830;2023-07-09T11:23:56;4.45;;;2.58;;
2029;SDS011;1020;48.854;8.830;2023-07-09T11:26:26;3.75;;;3.15;;
2029;SDS011;1020;48.854;8.830;2023-07-09T11:28:55;4.88;;;2.90;;
2029;SDS011;1020;48.854;8.830;2023-07-09T11:31:34;4.05;;;3.35;;
2029;SDS011;1020;48.854;8.830;2023-07-09T11:34:07;3.50;;;3.20;;
2029;SDS011;1020;48.854;8.830;2023-07-09T11:36:45;3.15;;;2.60;;
2029;SDS011;1020;48.854;8.830;2023-07-09T11:39:18;4.40;;;3.33;;
2029;SDS011;1020;48.854;8.830;2023-07-09T11:41:47;4.97;;;3.13;;
2029;SDS011;1020;48.854;8.830;2023-07-09T11:44:15;3.33;;;2.78;;
2029;SDS011;1020;48.854;8.830;2023-07-09T11:49:46;3.80;;;2.63;;
2029;SDS011;1020;48.854;8.830;2023-07-09T11:52:18;3.53;;;3.23;;
2029;SDS011;1020;48.854;8.830;2023-07-09T11:54:52;3.10;;;2.73;;
2029;SDS011;1020;48.854;8.830;2023-07-09T11:57:19;3.37;;;3.07;;
2029;SDS011;1020;48.854;8.830;2023-07-09T11:59:46;5.40;;;3.40;;
2029;SDS011;1020;48.854;8.830;2023-07-09T12:02:14;4.27;;;3.33;;
2029;SDS011;1020;48.854;8.830;2023-07-09T12:04:43;2.83;;;2.63;;
2029;SDS011;1020;48.854;8.830;2023-07-09T12:07:14;3.50;;;3.30;;
2029;SDS011;1020;48.854;8.830;2023-07-09T12:09:43;4.20;;;3.20;;
2029;SDS011;1020;48.854;8.830;2023-07-09T12:12:18;3.37;;;3.07;;
2029;SDS011;1020;48.854;8.830;2023-07-09T12:14:46;2.80;;;2.40;;
2029;SDS011;1020;48.854;8.830;2023-07-09T12:17:13;3.50;;;3.20;;
2029;SDS011;1020;48.854;8.830;2023-07-09T12:19:40;4.22;;;2.92;;
2029;SDS011;1020;48.854;8.830;2023-07-09T12:22:09;3.22;;;3.03;;
2029;SDS011;1020;48.854;8.830;2023-07-09T12:24:41;3.20;;;2.90;;
2029;SDS011;1020;48.854;8.830;2023-07-09T12:27:24;3.03;;;2.78;;
2029;SDS011;1020;48.854;8.830;2023-07-09T12:29:54;4.03;;;3.40;;
2029;SDS011;1020;48.854;8.830;2023-07-09T12:32:23;6.30;;;3.08;;
2029;SDS011;1020;48.854;8.830;2023-07-09T12:34:52;3.23;;;2.93;;
2029;SDS011;1020;48.854;8.830;2023-07-09T12:37:20;4.93;;;3.30;;
2029;SDS011;1020;48.854;8.830;2023-07-09T12:39:49;3.25;;;3.05;;
2029;SDS011;1020;48.854;8.830;2023-07-09T12:42:18;3.50;;;3.17;;
2029;SDS011;1020;48.854;8.830;2023-07-09T12:44:50;3.78;;;2.47;;
2029;SDS011;1020;48.854;8.830;2023-07-09T12:47:17;2.95;;;2.72;;
2029;SDS011;1020;48.854;8.830;2023-07-09T12:49:46;3.38;;;2.83;;
2029;SDS011;1020;48.854;8.830;2023-07-09T12:52:17;2.90;;;2.38;;
2029;SDS011;1020;48.854;8.830;2023-07-09T12:54:52;3.85;;;3.45;;
2029;SDS011;1020;48.854;8.830;2023-07-09T12:57:22;4.53;;;2.70;;
2029;SDS011;1020;48.854;8.830;2023-07-09T12:59:51;2.92;;;2.42;;
2029;SDS011;1020;48.854;8.830;2023-07-09T13:02:20;2.55;;;2.38;;
2029;SDS011;1020;48.854;8.830;2023-07-09T13:04:48;2.50;;;2.28;;
2029;SDS011;1020;48.854;8.830;2023-07-09T13:07:26;3.60;;;2.70;;
2029;SDS011;1020;48.854;8.830;2023-07-09T13:09:56;2.57;;;2.37;;
2029;SDS011;1020;48.854;8.830;2023-07-09T13:12:29;2.87;;;2.67;;
2029;SDS011;1020;48.854;8.830;2023-07-09T13:14:59;2.83;;;2.53;;
2029;SDS011;1020;48.854;8.830;2023-07-09T13:17:28;3.58;;;3.10;;
2029;SDS011;1020;48.854;8.830;2023-07-09T13:19:55;3.45;;;2.83;;
2029;SDS011;1020;48.854;8.830;2023-07-09T13:22:22;2.97;;;2.78;;
2029;SDS011;1020;48.854;8.830;2023-07-09T13:24:50;3.50;;;2.78;;
2029;SDS011;1020;48.854;8.830;2023-07-09T13:27:17;2.75;;;2.60;;
2029;SDS011;1020;48.854;8.830;2023-07-09T13:29:44;3.17;;;2.95;;
2029;SDS011;1020;48.854;8.830;2023-07-09T13:32:13;3.17;;;2.87;;
2029;SDS011;1020;48.854;8.830;2023-07-09T13:34:41;3.60;;;3.10;;
2029;SDS011;1020;48.854;8.830;2023-07-09T13:37:09;3.20;;;2.67;;
2029;SDS011;1020;48.854;8.830;2023-07-09T13:39:38;2.67;;;2.47;;
2029;SDS011;1020;48.854;8.830;2023-07-09T13:42:08;3.22;;;3.00;;
2029;SDS011;1020;48.854;8.830;2023-07-09T13:44:38;2.77;;;2.57;;
2029;SDS011;1020;48.854;8.830;2023-07-09T13:47:08;3.17;;;2.88;;
2029;SDS011;1020;48.854;8.830;2023-07-09T13:49:41;3.10;;;2.90;;
2029;SDS011;1020;48.854;8.830;2023-07-09T13:52:09;2.80;;;2.60;;
2029;SDS011;1020;48.854;8.830;2023-07-09T13:54:41;3.78;;;3.47;;
2029;SDS011;1020;48.854;8.830;2023-07-09T13:57:14;3.22;;;2.83;;
2029;SDS011;1020;48.854;8.830;2023-07-09T13:59:44;4.95;;;2.97;;
2029;SDS011;1020;48.854;8.830;2023-07-09T14:02:21;3.17;;;2.88;;
2029;SDS011;1020;48.854;8.830;2023-07-09T14:04:56;4.15;;;2.38;;
2029;SDS011;1020;48.854;8.830;2023-07-09T14:07:25;3.60;;;2.50;;
2029;SDS011;1020;48.854;8.830;2023-07-09T14:09:53;4.10;;;2.80;;
2029;SDS011;1020;48.854;8.830;2023-07-09T14:12:20;2.90;;;2.70;;
2029;SDS011;1020;48.854;8.830;2023-07-09T14:14:47;3.00;;;2.37;;
2029;SDS011;1020;48.854;8.830;2023-07-09T14:17:16;3.83;;;2.60;;
2029;SDS011;1020;48.854;8.830;2023-07-09T14:19:44;3.57;;;2.67;;
2029;SDS011;1020;48.854;8.830;2023-07-09T14:22:21;6.33;;;2.93;;
2029;SDS011;1020;48.854;8.830;2023-07-09T14:24:53;4.20;;;2.60;;
2029;SDS011;1020;48.854;8.830;2023-07-09T14:27:20;3.33;;;2.50;;
2029;SDS011;1020;48.854;8.830;2023-07-09T14:29:47;3.23;;;2.60;;
2029;SDS011;1020;48.854;8.830;2023-07-09T14:32:22;3.03;;;2.73;;
2029;SDS011;1020;48.854;8.830;2023-07-09T14:35:09;3.33;;;3.10;;
2029;SDS011;1020;48.854;8.830;2023-07-09T14:37:38;2.90;;;2.40;;
2029;SDS011;1020;48.854;8.830;2023-07-09T14:40:05;2.37;;;2.17;;
2029;SDS011;1020;48.854;8.830;2023-07-09T14:42:33;2.87;;;2.67;;
2029;SDS011;1020;48.854;8.830;2023-07-09T14:44:59;3.50;;;2.87;;
2029;SDS011;1020;48.854;8.830;2023-07-09T14:47:27;3.43;;;2.10;;
2029;SDS011;1020;48.854;8.830;2023-07-09T14:49:54;4.07;;;2.63;;
2029;SDS011;1020;48.854;8.830;2023-07-09T14:52:22;3.57;;;2.40;;
2029;SDS011;1020;48.854;8.830;2023-07-09T14:54:49;3.27;;;2.97;;
2029;SDS011;1020;48.854;8.830;2023-07-09T14:57:20;3.20;;;2.90;;
2029;SDS011;1020;48.854;8.830;2023-07-09T14:59:48;3.03;;;2.73;;
2029;SDS011;1020;48.854;8.830;2023-07-09T15:02:23;2.30;;;2.10;;
2029;SDS011;1020;48.854;8.830;2023-07-09T15:04:58;3.80;;;2.40;;
2029;SDS011;1020;48.854;8.830;2023-07-09T15:07:26;2.73;;;2.40;;
2029;SDS011;1020;48.854;8.830;2023-07-09T15:09:55;2.90;;;2.60;;
2029;SDS011;1020;48.854;8.830;2023-07-09T15:12:23;2.80;;;2.60;;
2029;SDS011;1020;48.854;8.830;2023-07-09T15:14:53;2.57;;;2.23;;
2029;SDS011;1020;48.854;8.830;2023-07-09T15:17:24;2.73;;;2.53;;
2029;SDS011;1020;48.854;8.830;2023-07-09T15:19:51;1.93;;;1.83;;
2029;SDS011;1020;48.854;8.830;2023-07-09T15:22:19;3.00;;;2.70;;
2029;SDS011;1020;48.854;8.830;2023-07-09T15:24:55;2.63;;;2.43;;
2029;SDS011;1020;48.854;8.830;2023-07-09T15:27:22;3.20;;;3.00;;
2029;SDS011;1020;48.854;8.830;2023-07-09T15:29:49;2.97;;;2.77;;